createdAt,value
2022-07-26T06:13:28.336Z,1004.71
2022-07-26T06:23:31.865Z,1004.78
2022-07-26T06:33:28.445Z,1004.79
2022-07-26T06:43:28.511Z,1004.72
2022-07-26T06:53:28.368Z,1004.77
2022-07-26T07:03:28.362Z,1004.77
2022-07-26T07:13:28.412Z,1004.83
2022-07-26T07:23:28.383Z,1004.74
2022-07-26T07:33:36.538Z,1004.78
2022-07-26T07:43:28.306Z,1004.82
2022-07-26T07:53:28.472Z,1004.76
2022-07-26T08:03:38.673Z,1004.77
2022-07-26T08:13:28.510Z,1004.83
2022-07-26T08:23:28.572Z,1004.82
2022-07-26T08:33:28.504Z,1004.90
2022-07-26T08:43:29.308Z,1005.58
2022-07-26T08:53:28.500Z,1005.90
2022-07-26T09:03:28.527Z,1006.11
2022-07-26T09:13:28.578Z,1006.20
2022-07-26T09:23:28.486Z,1006.33
2022-07-26T09:33:28.659Z,1006.42
2022-07-26T09:43:28.599Z,1006.46
2022-07-26T09:53:28.667Z,1006.65
2022-07-26T10:03:28.697Z,1006.78
2022-07-26T10:13:28.609Z,1006.90
2022-07-26T10:23:28.845Z,1006.84
2022-07-26T10:33:28.578Z,1007.00
2022-07-26T10:43:41.452Z,1006.97
2022-07-26T10:53:28.583Z,1007.21
2022-07-26T11:03:28.890Z,1007.46
2022-07-26T11:13:28.691Z,1007.57
2022-07-26T11:23:28.842Z,1007.54
2022-07-26T11:33:28.607Z,1007.56
2022-07-26T11:43:28.865Z,1007.53
2022-07-26T11:53:28.711Z,1007.56
2022-07-26T12:03:28.758Z,1007.61
2022-07-26T12:13:28.738Z,1007.70
2022-07-26T12:23:29.211Z,1007.71
2022-07-26T12:33:28.875Z,1007.82
2022-07-26T12:43:28.725Z,1007.76
2022-07-26T12:53:29.143Z,1007.61
2022-07-26T13:03:28.770Z,1007.66
2022-07-26T13:13:28.659Z,1007.64
2022-07-26T13:23:28.824Z,1007.69
2022-07-26T13:33:28.870Z,1007.60
2022-07-26T13:43:28.839Z,1007.85
2022-07-26T13:53:28.834Z,1007.96
2022-07-26T14:03:35.015Z,1008.06
2022-07-26T14:13:28.924Z,1007.98
2022-07-26T14:23:28.882Z,1008.10
2022-07-26T14:33:28.983Z,1008.04
2022-07-26T14:43:29.015Z,1008.13
2022-07-26T14:53:28.922Z,1008.07
2022-07-26T15:03:29.043Z,1008.28
2022-07-26T15:13:28.879Z,1008.23
2022-07-26T15:23:29.074Z,1008.28
2022-07-26T15:33:29.044Z,1008.06
2022-07-26T15:43:43.998Z,1008.21
2022-07-26T15:53:28.985Z,1008.24
2022-07-26T16:03:29.116Z,1008.29
2022-07-26T16:13:29.123Z,1008.24
2022-07-26T16:23:29.097Z,1008.41
2022-07-26T16:33:29.232Z,1008.37
2022-07-26T16:43:29.099Z,1008.37
2022-07-26T16:53:29.251Z,1008.39
2022-07-26T17:03:29.168Z,1008.33
2022-07-26T17:13:29.231Z,1008.50
2022-07-26T17:23:29.168Z,1008.46
2022-07-26T17:33:29.547Z,1008.37
2022-07-26T17:43:36.313Z,1008.51
2022-07-26T17:53:34.365Z,1008.54
2022-07-26T18:03:29.323Z,1008.53
2022-07-26T18:13:29.479Z,1008.50
2022-07-26T18:23:29.453Z,1008.54
2022-07-26T18:33:31.779Z,1008.64
2022-07-26T18:43:29.784Z,1008.68
2022-07-26T18:53:29.639Z,1008.81
2022-07-26T19:03:29.798Z,1009.06
2022-07-26T19:13:29.616Z,1008.99
